Airfield :
LOGIN :

Register | Disclaimer

   EN    FR    IT 

 










Legend :    VFR   Marginal VFR   IFR   Intensive IFR   Very Intensive IFR
Visi :
Ceiling :
>= 8 km
>= 3000ft
5 to 8 km
1000 to 3000 ft
1500m to 5 km
500 to 1000 ft
800 to 1500m
200 to 500 ft
< 800m
< 200 ft
Symbols :   Thunderstorms  Fog  Heavy snow  Heavy precipitations  Wind > 20 kt
SIGMETs :     Misc.  Thunderstorms  Icing  Turbulence  Mountain Waves  Volcanic Ashes







- Airport Elevation : 628 ft
- IATA code : PNL


LICG - Pantelleria

CURRENT METAR :
  • 161755Z 04005KT CAVOK 28/25 Q1014

EXPIRED METARs :
  • 161655Z 20005KT CAVOK 33/18 Q1014

TAF TAF LICG
Valid from the 16 at 18:00 until the 17 at 03:00 UTC


161700Z 1618/1703 21006KT CAVOK
BECMG 1619/1621 VRB03KT
No reported NOTAMs for that airfield.
6 SIGMETs reported for the Roma FIR (LIRR) :
 
Severe turbulence
LIRR SIGMET 9 VALID 162010/170010 LIIB
LIRR ROMA FIR SEV TURB FCST N OF LINE N3943 E00749 - N4137 E01440 ABV FL240 STNR WKN=
Embedded thunderstorms
LIRR SIGMET 8 VALID 161940/162359 LIIB
LIRR ROMA FIR EMBD TS FCST WI N4113 E00950 - N4028 E01232 - N4127 E01417 - N4254 E01307 - N4329 E01319 - N4343 E01127 - N4332 E01016 - N4309 E00948 - N4113 E00950 TOP ABV FL330 MOV NE NC=
Embedded thunderstorms
LIRR SIGMET 7 VALID 161610/162010 LIIB
LIRR ROMA FIR EMBD TS FCST WI N4118 E00903 - N4015 E00904 - N3911 E01025 - N4103 E01349 - N4333 E01018 - N4307 E00945 - N4122 E00944 - N4118 E00903 TOP ABV FL330 MOV NE NC=
Severe icing
LIRR SIGMET 6 VALID 161610/162010 LIIB
LIRR ROMA FIR SEV ICE FCST WI N4031 E01529 - N4011 E01402 - N4100 E00801 - N4118 E00817 - N4119 E00945 - N4311 E00944 - N4332 E01018 - N4343 E01058 - N4332 E01316 - N4301 E01303 - N4126 E01425 - N4114 E01507 - N4031 E01529 ABV FL200 STNR NC=
Severe turbulence
LIRR SIGMET 5 VALID 161610/162010 LIIB
LIRR ROMA FIR SEV TURB FCST N OF LINE N3943 E00749 - N4137 E01440 ABV FL240 STNR NC=
SIGMET 7  cancelation
LIRR SIGMET 10 VALID 161942/162010 LIIB
LIRR ROMA FIR CNL SIGMET 7 161610/162010=



MET'MAP, your aeronautical weather chart ! - Copyright ORBIFLY December 2007 - Disclaimer

ORBIFLY MET'MAP TEAM :

Programming & Development : Alexandra Zaïnal
Concept & Development : Baudouin d'Aumeries
Co-Development & Prog : Marc-Olivier Méhu
Technical & hardware support : Manuel Goepfert

Contact : metmap@orbifly.com




SOURCES & CREDITS :

   NOAA